Time;durP1;ratioP1;P1;durP2;ratioP2;P2;SDS_P1;SDS_P2;PMS_P1;PMS_P2;Temp;Humidity;BMP_temperature;BMP_pressure;BME280_temperature;BME280_humidity;BME280_pressure;Samples;Min_cycle;Max_cycle;Signal;HPM_P1;HPM_P2
2021/12/27 00:02:06;;;;;;;9.90;5.88;;;;;;;-0.80;90.40;100588.56;5009985;28;20042;-79
2021/12/27 00:04:32;;;;;;;8.23;4.93;;;;;;;-0.65;89.82;100629.66;5005208;28;20053;-78
2021/12/27 00:06:57;;;;;;;8.48;4.93;;;;;;;-0.60;89.58;100601.53;5010615;28;20041;-78
2021/12/27 00:09:23;;;;;;;7.25;4.30;;;;;;;-0.70;89.30;100590.78;5006825;28;20045;-78
2021/12/27 00:11:48;;;;;;;10.45;5.75;;;;;;;-1.17;90.00;100591.91;5007596;28;20799;-78
2021/12/27 00:14:14;;;;;;;6.00;4.78;;;;;;;-1.01;89.92;100609.00;5009926;28;20496;-76
2021/12/27 00:16:39;;;;;;;7.70;5.13;;;;;;;-1.02;90.07;100629.53;5007131;28;20109;-77
2021/12/27 00:19:05;;;;;;;7.20;4.53;;;;;;;-1.09;90.28;100607.75;5009402;28;20033;-78
2021/12/27 00:21:31;;;;;;;6.05;3.70;;;;;;;-1.16;90.53;100600.53;5010053;28;20054;-79
2021/12/27 00:24:25;;;;;;;5.80;4.05;;;;;;;-1.03;90.53;100589.13;5020483;28;20633;-78
2021/12/27 00:26:52;;;;;;;9.20;4.50;;;;;;;-0.72;90.04;100587.25;5018510;28;21164;-79
2021/12/27 00:29:17;;;;;;;6.68;4.43;;;;;;;-0.85;89.74;100582.31;5019258;28;20041;-82
2021/12/27 00:31:43;;;;;;;5.68;4.13;;;;;;;-0.88;89.69;100572.75;5020821;28;20048;-82
2021/12/27 00:34:09;;;;;;;6.13;4.10;;;;;;;-1.35;89.85;100586.72;5015524;28;20080;-83
2021/12/27 00:36:37;;;;;;;5.63;3.25;;;;;;;-1.16;90.00;100603.09;5005893;28;20060;-76
2021/12/27 00:40:26;;;;;;;5.15;2.92;;;;;;;-1.12;90.46;100623.94;5050724;28;21173;-79
2021/12/27 00:42:51;;;;;;;6.38;3.95;;;;;;;-1.17;90.27;100609.03;5032315;28;20047;-79
2021/12/27 00:45:20;;;;;;;5.93;3.65;;;;;;;-1.14;90.08;100607.50;5031881;28;20440;-79
2021/12/27 00:47:45;;;;;;;8.13;4.63;;;;;;;-1.35;89.97;100609.00;5028564;28;20048;-78
2021/12/27 00:50:11;;;;;;;7.40;3.80;;;;;;;-1.13;90.31;100655.59;5024603;28;20037;-80
2021/12/27 00:54:26;;;;;;;5.97;3.65;;;;;;;-1.03;89.76;100659.56;5074777;27;20632;-79
2021/12/27 00:56:52;;;;;;;5.63;3.45;;;;;;;-1.35;89.73;100627.03;5071572;28;20063;-78
2021/12/27 00:59:17;;;;;;;6.10;3.95;;;;;;;-1.27;89.83;100625.72;5074276;28;20107;-78
2021/12/27 01:01:43;;;;;;;7.05;4.40;;;;;;;-1.36;89.81;100612.38;5073200;28;20062;-79
2021/12/27 01:04:09;;;;;;;4.65;3.45;;;;;;;-1.30;90.34;100623.88;5071750;28;20497;-78
2021/12/27 01:06:34;;;;;;;4.72;3.38;;;;;;;-1.19;89.86;100596.09;5073675;28;20039;-78
2021/12/27 01:09:00;;;;;;;4.70;3.53;;;;;;;-1.43;90.09;100603.44;5072873;28;20082;-78
2021/12/27 01:11:41;;;;;;;8.02;4.15;;;;;;;-1.34;90.47;100621.06;5067974;28;20048;-78
2021/12/27 01:14:14;;;;;;;6.55;4.07;;;;;;;-1.37;90.22;100605.47;5070129;28;20056;-78
2021/12/27 01:16:42;;;;;;;5.88;4.20;;;;;;;-1.43;90.31;100590.59;5068732;28;20067;-79
2021/12/27 01:19:12;;;;;;;4.28;3.30;;;;;;;-1.34;90.78;100623.63;5053778;28;20579;-79
2021/12/27 01:21:38;;;;;;;5.47;3.72;;;;;;;-1.23;90.66;100627.63;5052709;28;20150;-80
2021/12/27 01:26:27;;;;;;;5.32;3.50;;;;;;;-1.47;90.81;100595.53;5082404;27;20608;-79
2021/12/27 01:28:56;;;;;;;4.78;3.60;;;;;;;-1.10;90.59;100632.63;5070897;28;20479;-77
2021/12/27 01:31:22;;;;;;;4.00;2.80;;;;;;;-1.53;90.50;100614.97;5071311;28;20025;-79
2021/12/27 01:36:31;;;;;;;5.30;3.33;;;;;;;-1.31;90.80;100654.69;5015827;27;20648;-79
2021/12/27 01:38:57;;;;;;;5.45;3.38;;;;;;;-1.25;90.78;100636.97;5014031;28;20096;-76
2021/12/27 01:41:22;;;;;;;6.30;3.90;;;;;;;-1.08;90.40;100633.59;5015359;28;20053;-81
2021/12/27 01:43:48;;;;;;;4.80;3.25;;;;;;;-1.14;90.16;100651.28;5012507;28;20180;-81
2021/12/27 01:48:32;;;;;;;4.20;2.40;;;;;;;-1.29;90.29;100619.59;5030739;28;20635;-80
2021/12/27 01:50:59;;;;;;;8.25;3.13;;;;;;;-1.19;90.55;100601.25;5026795;28;20052;-81
2021/12/27 01:53:28;;;;;;;5.10;3.60;;;;;;;-1.31;90.15;100611.81;5027165;28;20060;-80
2021/12/27 01:55:57;;;;;;;7.07;4.53;;;;;;;-0.98;90.46;100622.03;5028168;28;20526;-80
2021/12/27 01:58:24;;;;;;;5.93;3.70;;;;;;;-1.33;90.43;100617.69;5022722;28;20033;-80
2021/12/27 02:00:55;;;;;;;7.25;3.22;;;;;;;-1.28;90.56;100603.38;5023967;28;20073;-81
2021/12/27 02:03:22;;;;;;;4.90;3.13;;;;;;;-1.29;90.67;100627.31;5026783;28;20037;-80
2021/12/27 02:05:48;;;;;;;7.45;4.45;;;;;;;-1.34;90.69;100619.38;5027260;28;20053;-79
2021/12/27 02:08:14;;;;;;;5.57;3.65;;;;;;;-1.32;90.67;100627.19;5056587;28;20068;-77
2021/12/27 02:10:40;;;;;;;5.85;3.40;;;;;;;-1.49;90.84;100608.31;5037937;28;20068;-77
2021/12/27 02:13:06;;;;;;;5.20;3.15;;;;;;;-1.32;90.77;100637.47;5028830;28;20175;-78
2021/12/27 02:15:31;;;;;;;4.43;2.50;;;;;;;-1.51;90.78;100605.63;5032593;28;20502;-80
2021/12/27 02:17:57;;;;;;;4.97;3.33;;;;;;;-1.38;90.73;100626.84;5029285;28;20081;-78
2021/12/27 02:20:25;;;;;;;5.28;3.13;;;;;;;-1.46;90.82;100611.03;5025383;28;20057;-79
2021/12/27 02:22:55;;;;;;;4.85;3.15;;;;;;;-1.32;90.94;100633.19;5025842;28;20049;-76
2021/12/27 02:25:20;;;;;;;6.57;3.60;;;;;;;-1.32;90.94;100640.91;5022788;28;20033;-81
2021/12/27 02:27:46;;;;;;;5.25;3.45;;;;;;;-1.37;91.00;100620.91;5022229;28;20078;-80
2021/12/27 02:30:17;;;;;;;6.20;3.55;;;;;;;-1.37;91.03;100619.22;5024742;28;20485;-78
2021/12/27 02:32:51;;;;;;;3.58;2.42;;;;;;;-1.34;91.28;100610.75;5028426;28;20053;-77
2021/12/27 02:35:23;;;;;;;6.07;3.78;;;;;;;-1.36;90.81;100625.25;5025666;28;20164;-78
2021/12/27 02:37:49;;;;;;;4.70;2.88;;;;;;;-1.33;90.97;100620.28;5026609;28;20049;-78
2021/12/27 02:40:16;;;;;;;4.95;3.08;;;;;;;-1.39;90.93;100602.81;5025733;28;20048;-78
2021/12/27 02:43:15;;;;;;;4.80;3.03;;;;;;;-1.31;90.74;100619.53;5024605;28;20037;-80
2021/12/27 02:45:55;;;;;;;4.90;3.13;;;;;;;-1.24;91.04;100643.91;4996906;28;20041;-79
2021/12/27 02:48:23;;;;;;;5.07;3.47;;;;;;;-1.29;90.92;100628.22;5024264;28;21543;-79
2021/12/27 02:50:50;;;;;;;5.90;3.30;;;;;;;-1.51;91.29;100625.34;5024055;28;20509;-78
2021/12/27 02:54:22;;;;;;;5.75;3.90;;;;;;;-1.38;91.37;100645.78;5028853;27;20641;-78
2021/12/27 02:56:48;;;;;;;5.53;2.97;;;;;;;-1.37;91.13;100632.09;5027430;28;20044;-78
2021/12/27 02:59:13;;;;;;;5.47;3.63;;;;;;;-1.62;91.57;100598.16;5023861;28;20049;-80
2021/12/27 03:01:39;;;;;;;4.43;3.10;;;;;;;-1.38;91.27;100627.75;5026535;28;20166;-77
2021/12/27 03:06:28;;;;;;;5.03;3.40;;;;;;;-1.47;91.01;100610.97;5074638;27;20636;-79
2021/12/27 03:08:53;;;;;;;4.68;3.38;;;;;;;-1.49;91.36;100608.31;5072658;28;20102;-78
2021/12/27 03:11:19;;;;;;;5.32;3.30;;;;;;;-1.35;91.28;100630.47;5071614;28;20041;-78
2021/12/27 03:13:47;;;;;;;7.05;3.78;;;;;;;-1.44;91.29;100590.53;5073060;28;20045;-80
2021/12/27 03:16:15;;;;;;;6.28;3.38;;;;;;;-1.37;91.17;100608.03;5073239;28;21221;-80
2021/12/27 03:18:50;;;;;;;4.57;2.65;;;;;;;-1.36;91.11;100609.78;5073015;28;20024;-80
2021/12/27 03:22:34;;;;;;;4.20;3.13;;;;;;;-1.38;91.42;100617.47;5108447;27;20532;-75
2021/12/27 03:25:00;;;;;;;4.70;3.33;;;;;;;-1.46;91.51;100612.72;5062212;28;20036;-80
2021/12/27 03:27:27;;;;;;;6.22;4.15;;;;;;;-1.48;91.78;100584.31;5051498;28;20519;-81
2021/12/27 03:29:52;;;;;;;5.20;3.72;;;;;;;-1.64;91.89;100592.97;5057203;28;20121;-78
2021/12/27 03:32:20;;;;;;;4.38;3.03;;;;;;;-1.51;91.79;100605.63;5062439;28;20484;-77
2021/12/27 03:34:54;;;;;;;6.13;3.45;;;;;;;-1.56;91.89;100613.94;5057319;28;20109;-77
2021/12/27 03:37:21;;;;;;;7.72;3.58;;;;;;;-1.66;92.09;100597.16;5059607;28;20110;-78
2021/12/27 03:39:47;;;;;;;4.55;3.47;;;;;;;-1.64;92.25;100587.81;5057425;28;20060;-79
2021/12/27 03:42:12;;;;;;;5.03;4.00;;;;;;;-1.36;92.46;100618.44;5057431;28;20186;-78
2021/12/27 03:46:29;;;;;;;7.55;3.55;;;;;;;-1.46;92.31;100587.00;5049853;28;21053;-78
2021/12/27 03:48:54;;;;;;;5.03;3.28;;;;;;;-1.31;92.47;100616.09;5030943;28;20045;-78
2021/12/27 03:51:20;;;;;;;6.07;4.13;;;;;;;-1.44;92.54;100601.69;5028094;28;20511;-79
2021/12/27 03:53:45;;;;;;;5.30;3.35;;;;;;;-1.36;92.52;100608.13;5023371;28;20053;-79
2021/12/27 03:56:29;;;;;;;6.60;4.00;;;;;;;-1.56;92.68;100601.06;5012619;28;20967;-79
2021/12/27 03:59:18;;;;;;;7.32;3.78;;;;;;;-1.41;92.94;100595.81;4992398;28;20402;-76
2021/12/27 04:01:43;;;;;;;5.97;3.95;;;;;;;-1.46;93.03;100599.84;4993149;28;20461;-80
2021/12/27 04:04:08;;;;;;;5.55;3.92;;;;;;;-1.34;93.21;100605.63;4994161;28;20030;-80
2021/12/27 04:06:34;;;;;;;5.50;3.22;;;;;;;-1.32;93.10;100583.41;4994001;28;20041;-76
2021/12/27 04:10:29;;;;;;;5.90;3.90;;;;;;;-1.44;92.87;100568.25;5049431;28;20622;-79
2021/12/27 04:12:56;;;;;;;6.30;4.47;;;;;;;-1.41;92.96;100581.25;5033845;28;20045;-75
2021/12/27 04:15:22;;;;;;;7.53;4.28;;;;;;;-1.43;92.80;100572.56;5032385;28;21047;-79
2021/12/27 04:17:48;;;;;;;5.80;4.15;;;;;;;-1.59;93.24;100559.72;5034970;28;20094;-77
2021/12/27 04:20:14;;;;;;;7.00;4.47;;;;;;;-1.14;93.21;100588.63;5031823;28;20057;-76
2021/12/27 04:22:39;;;;;;;7.45;3.88;;;;;;;-1.52;93.05;100567.88;5032506;28;20516;-75
2021/12/27 04:25:05;;;;;;;6.30;3.78;;;;;;;-1.51;93.11;100579.03;5032867;28;20040;-76
2021/12/27 04:27:30;;;;;;;7.35;4.18;;;;;;;-1.30;93.39;100571.50;5030195;28;20455;-82
2021/12/27 04:29:56;;;;;;;6.07;3.83;;;;;;;-1.42;93.09;100558.91;5031792;28;20408;-75
2021/12/27 04:32:21;;;;;;;6.07;4.10;;;;;;;-1.42;93.24;100563.19;5030452;28;20069;-78
2021/12/27 04:34:47;;;;;;;7.20;4.50;;;;;;;-1.45;93.26;100563.91;5032347;28;20187;-80
2021/12/27 04:38:30;;;;;;;7.20;4.47;;;;;;;-1.58;93.28;100559.81;5018535;28;20620;-79
2021/12/27 04:40:56;;;;;;;6.32;4.32;;;;;;;-1.62;93.62;100552.75;4998755;28;20046;-79
2021/12/27 04:43:23;;;;;;;5.32;3.88;;;;;;;-1.46;93.72;100589.56;5002622;28;20034;-78
2021/12/27 04:45:51;;;;;;;6.18;4.47;;;;;;;-1.49;93.58;100570.59;5004185;28;20026;-75
2021/12/27 04:48:19;;;;;;;7.38;4.90;;;;;;;-1.44;93.86;100572.50;4996957;28;20052;-78
2021/12/27 04:52:30;;;;;;;8.10;4.20;;;;;;;-1.42;93.60;100578.63;5088274;27;21269;-77
2021/12/27 04:54:55;;;;;;;6.18;4.47;;;;;;;-1.42;93.71;100561.50;5073665;28;20028;-79
2021/12/27 04:57:21;;;;;;;6.97;3.97;;;;;;;-1.42;93.59;100563.19;5072425;28;20486;-77
2021/12/27 04:59:46;;;;;;;6.60;4.38;;;;;;;-1.15;93.36;100599.69;5074361;28;20636;-77
2021/12/27 05:02:12;;;;;;;8.30;4.53;;;;;;;-1.28;93.35;100549.31;5071511;28;20495;-78
2021/12/27 05:06:30;;;;;;;7.82;4.15;;;;;;;-1.68;93.42;100549.88;5025529;27;20633;-78
2021/12/27 05:08:56;;;;;;;8.23;5.22;;;;;;;-1.44;93.48;100575.09;5026240;28;20064;-78
2021/12/27 05:11:22;;;;;;;7.05;5.00;;;;;;;-1.54;93.55;100556.59;5027026;28;20050;-78
2021/12/27 05:13:48;;;;;;;8.88;6.63;;;;;;;-1.47;93.73;100562.94;5032452;28;20045;-78
2021/12/27 05:18:29;;;;;;;7.93;5.07;;;;;;;-1.50;93.56;100597.13;5037301;27;20623;-78
2021/12/27 05:20:55;;;;;;;9.57;6.00;;;;;;;-1.45;93.77;100596.47;5038200;28;20059;-78
2021/12/27 05:23:21;;;;;;;8.35;4.53;;;;;;;-1.52;93.84;100580.72;5035525;28;20041;-78
2021/12/27 05:25:47;;;;;;;9.25;5.75;;;;;;;-1.53;94.16;100588.34;5035038;28;20072;-78
2021/12/27 05:28:13;;;;;;;8.15;5.45;;;;;;;-1.48;94.03;100548.31;5016382;28;20029;-77
2021/12/27 05:30:41;;;;;;;9.75;6.90;;;;;;;-1.64;93.71;100563.75;5017472;28;20118;-78
2021/12/27 05:33:07;;;;;;;8.57;6.30;;;;;;;-1.55;93.96;100577.09;5033416;28;20053;-78
2021/12/27 05:35:33;;;;;;;8.52;6.75;;;;;;;-1.43;94.00;100600.00;5035999;28;20124;-77
2021/12/27 05:37:58;;;;;;;7.97;5.68;;;;;;;-1.50;93.90;100611.66;5035990;28;20842;-78
2021/12/27 05:42:45;;;;;;;8.15;5.97;;;;;;;-1.34;93.33;100642.53;5052563;28;21089;-76
2021/12/27 05:45:10;;;;;;;10.57;6.03;;;;;;;-1.66;93.50;100607.44;5018475;28;20041;-76
2021/12/27 05:47:37;;;;;;;8.10;5.80;;;;;;;-1.47;93.68;100618.69;5010488;28;20053;-77
2021/12/27 05:49:53;;;;;;;7.90;5.70;;;;;;;-1.45;93.41;100617.03;4698559;28;20050;-76
2021/12/27 05:54:27;;;;;;;11.02;5.57;;;;;;;-1.52;93.58;100605.59;5003659;28;20642;-78
2021/12/27 05:56:52;;;;;;;10.68;7.03;;;;;;;-1.44;93.92;100616.25;5000608;28;20046;-78
2021/12/27 05:59:18;;;;;;;7.72;6.05;;;;;;;-1.31;93.88;100623.81;4999751;28;20479;-75
2021/12/27 06:01:45;;;;;;;9.52;5.55;;;;;;;-1.28;94.04;100590.50;5003165;28;20402;-82
2021/12/27 06:04:10;;;;;;;7.75;5.45;;;;;;;-1.19;93.97;100608.97;5002650;28;20073;-79
2021/12/27 06:06:37;;;;;;;8.90;5.53;;;;;;;-1.13;93.57;100604.13;5002591;28;20141;-78
2021/12/27 06:09:04;;;;;;;8.40;6.15;;;;;;;-1.39;93.62;100594.22;5001959;28;20045;-77
2021/12/27 06:11:30;;;;;;;8.32;5.47;;;;;;;-1.39;93.44;100609.66;4999216;28;20302;-77
2021/12/27 06:13:56;;;;;;;9.02;6.88;;;;;;;-1.31;93.41;100596.38;5002226;28;20596;-77
2021/12/27 06:16:21;;;;;;;9.23;6.68;;;;;;;-1.14;93.81;100597.22;5001558;28;21156;-78
2021/12/27 06:20:34;;;;;;;10.25;6.80;;;;;;;-0.95;92.90;100592.97;5029571;28;20625;-78
2021/12/27 06:22:59;;;;;;;8.65;6.32;;;;;;;-0.73;92.61;100589.75;5013375;28;20036;-78
2021/12/27 06:25:25;;;;;;;9.85;6.82;;;;;;;-0.91;92.13;100602.63;5013847;28;20103;-77
2021/12/27 06:27:51;;;;;;;9.32;7.07;;;;;;;-1.16;92.54;100601.41;5013460;28;20108;-75
2021/12/27 06:30:33;;;;;;;8.95;6.72;;;;;;;-1.05;92.13;100614.81;4992381;28;20650;-78
2021/12/27 06:32:58;;;;;;;9.43;6.45;;;;;;;-0.95;92.68;100606.72;4991063;28;20038;-78
2021/12/27 06:35:24;;;;;;;8.82;6.40;;;;;;;-0.94;92.63;100599.88;4991648;28;20054;-75
2021/12/27 06:37:49;;;;;;;9.65;5.88;;;;;;;-1.47;92.79;100592.94;4991843;28;20046;-75
2021/12/27 06:40:17;;;;;;;9.88;7.00;;;;;;;-1.47;93.13;100613.53;4994559;28;20031;-78
2021/12/27 06:42:43;;;;;;;10.45;6.00;;;;;;;-1.09;93.25;100606.03;4992961;28;20085;-77
2021/12/27 06:45:09;;;;;;;8.77;6.60;;;;;;;-0.94;93.48;100628.22;4991165;28;20058;-78
2021/12/27 06:47:34;;;;;;;9.98;7.35;;;;;;;-0.82;93.07;100628.84;4992404;28;20057;-77
2021/12/27 06:52:34;;;;;;;8.85;6.10;;;;;;;-1.14;92.74;100622.97;5119641;27;20633;-81
2021/12/27 06:55:00;;;;;;;10.02;7.30;;;;;;;-0.86;92.38;100603.72;5056702;28;20485;-80
2021/12/27 06:57:25;;;;;;;11.40;7.22;;;;;;;-0.72;92.38;100622.44;5052321;28;20045;-78
2021/12/27 06:59:51;;;;;;;11.32;6.78;;;;;;;-1.10;92.55;100594.00;5065308;28;20052;-78
2021/12/27 07:02:16;;;;;;;10.98;6.55;;;;;;;-0.97;92.37;100604.88;5072390;28;20033;-77
2021/12/27 07:04:42;;;;;;;12.25;6.80;;;;;;;-1.19;93.00;100601.25;5070334;28;20040;-78
2021/12/27 07:07:08;;;;;;;10.27;6.88;;;;;;;-1.26;93.06;100583.75;5073987;28;20035;-77
2021/12/27 07:09:33;;;;;;;8.40;6.13;;;;;;;-1.12;93.01;100595.59;5072281;28;20052;-81
2021/12/27 07:14:34;;;;;;;8.40;6.82;;;;;;;-1.37;93.48;100569.44;5098325;27;20611;-79
2021/12/27 07:17:00;;;;;;;9.13;6.65;;;;;;;-1.09;93.68;100582.00;5093061;27;20074;-76
2021/12/27 07:19:26;;;;;;;6.70;5.57;;;;;;;-1.04;93.54;100592.53;5087065;28;20089;-83
2021/12/27 07:21:51;;;;;;;12.93;7.28;;;;;;;-1.02;93.42;100606.34;5085333;28;20032;-83
2021/12/27 07:24:17;;;;;;;6.68;5.55;;;;;;;-1.28;93.24;100581.06;5085488;28;20632;-82
2021/12/27 07:26:42;;;;;;;8.80;6.40;;;;;;;-1.03;93.11;100568.53;5082865;28;20074;-84
2021/12/27 07:29:08;;;;;;;10.57;6.60;;;;;;;-1.18;93.10;100566.09;5083635;28;20093;-80
2021/12/27 07:31:33;;;;;;;11.27;7.25;;;;;;;-1.21;92.85;100573.66;5083292;27;20055;-79
2021/12/27 07:36:35;;;;;;;8.73;6.03;;;;;;;-1.01;92.97;100574.63;5058809;28;20610;-77
2021/12/27 07:39:00;;;;;;;10.52;7.78;;;;;;;-1.05;93.04;100565.91;5021408;28;20056;-79
2021/12/27 07:41:26;;;;;;;8.23;5.63;;;;;;;-1.37;92.90;100562.59;5011538;28;20072;-78
2021/12/27 07:43:51;;;;;;;7.90;6.28;;;;;;;-1.22;93.09;100575.34;5011186;28;20528;-78
2021/12/27 07:46:35;;;;;;;9.40;6.78;;;;;;;-1.24;92.48;100576.97;5047773;28;20619;-76
2021/12/27 07:49:02;;;;;;;9.43;7.20;;;;;;;-1.22;93.09;100569.31;5022212;28;20036;-87
2021/12/27 07:51:28;;;;;;;13.10;7.43;;;;;;;-1.19;92.91;100565.22;5023150;28;20095;-86
2021/12/27 07:56:49;;;;;;;10.77;9.25;;;;;;;-0.85;93.01;100575.44;5031672;28;22512;-77
2021/12/27 07:59:14;;;;;;;10.93;9.15;;;;;;;-1.11;93.19;100599.94;5016706;28;20056;-79
2021/12/27 08:01:40;;;;;;;13.10;7.85;;;;;;;-1.45;93.26;100568.16;5016448;28;20136;-78
2021/12/27 08:06:36;;;;;;;13.55;8.35;;;;;;;-1.16;93.50;100580.81;5056800;28;20636;-74
2021/12/27 08:09:02;;;;;;;9.50;8.50;;;;;;;-1.20;93.26;100594.31;5054590;28;20041;-71
2021/12/27 08:11:28;;;;;;;9.63;7.20;;;;;;;-1.43;93.24;100581.97;5054485;28;20407;-71
2021/12/27 08:13:54;;;;;;;11.18;8.13;;;;;;;-1.09;93.32;100564.84;5056442;28;20040;-76
2021/12/27 08:16:34;;;;;;;12.80;9.07;;;;;;;-0.98;93.08;100559.34;5048756;28;21166;-72
2021/12/27 08:18:59;;;;;;;10.05;8.43;;;;;;;-1.28;93.15;100587.91;5022725;28;20047;-79
2021/12/27 08:21:26;;;;;;;12.05;9.50;;;;;;;-1.38;93.03;100566.00;5014730;28;20041;-79
2021/12/27 08:23:52;;;;;;;9.73;7.38;;;;;;;-1.30;93.20;100564.66;5027295;28;20049;-78
2021/12/27 08:26:18;;;;;;;13.75;9.38;;;;;;;-1.31;93.23;100552.63;5063204;28;20393;-81
2021/12/27 08:28:45;;;;;;;13.57;10.75;;;;;;;-1.18;93.19;100572.13;5027945;28;20045;-81
2021/12/27 08:31:11;;;;;;;16.25;9.32;;;;;;;-1.29;93.51;100573.25;5028302;28;20057;-81
2021/12/27 08:33:36;;;;;;;13.98;9.15;;;;;;;-1.07;93.26;100567.50;5027224;28;20738;-81
2021/12/27 08:36:35;;;;;;;17.48;9.30;;;;;;;-1.25;93.21;100556.31;5081472;28;20546;-74
2021/12/27 08:39:01;;;;;;;13.52;9.50;;;;;;;-1.02;93.15;100562.59;5076289;28;20040;-82
2021/12/27 08:41:29;;;;;;;10.63;7.95;;;;;;;-1.47;93.60;100549.22;5076838;28;20076;-75
2021/12/27 08:46:34;;;;;;;11.38;8.88;;;;;;;-1.35;94.00;100557.53;5049279;28;21139;-77
2021/12/27 08:49:01;;;;;;;16.20;11.05;;;;;;;-1.06;93.65;100558.97;5031657;28;20045;-77
2021/12/27 08:51:27;;;;;;;18.10;10.02;;;;;;;-1.07;93.55;100523.75;5033542;28;20045;-77
2021/12/27 08:53:53;;;;;;;14.60;9.98;;;;;;;-1.13;93.26;100518.28;5031250;28;20072;-74
2021/12/27 08:56:33;;;;;;;14.50;11.15;;;;;;;-1.29;93.13;100543.28;5061905;27;21226;-77
2021/12/27 08:58:59;;;;;;;10.23;8.73;;;;;;;-1.19;93.45;100579.78;5046837;28;20051;-81
2021/12/27 09:01:26;;;;;;;12.50;8.60;;;;;;;-1.38;93.35;100559.94;5057246;28;20040;-80
2021/12/27 09:03:51;;;;;;;11.52;9.57;;;;;;;-1.51;93.87;100556.75;5060725;28;20028;-76
2021/12/27 09:06:36;;;;;;;12.77;9.00;;;;;;;-1.47;93.95;100537.22;5093447;27;20522;-79
2021/12/27 09:09:04;;;;;;;11.65;9.43;;;;;;;-1.24;94.01;100546.09;5091528;28;20126;-78
2021/12/27 09:11:30;;;;;;;15.15;10.20;;;;;;;-1.08;93.50;100532.25;5089650;28;20056;-71
2021/12/27 09:13:55;;;;;;;13.40;10.02;;;;;;;-1.31;93.52;100538.88;5091119;28;20073;-72
2021/12/27 09:18:37;;;;;;;10.35;7.82;;;;;;;-1.33;94.07;100497.59;5083212;27;20577;-72
2021/12/27 09:21:03;;;;;;;10.70;8.55;;;;;;;-1.54;93.94;100517.13;5084181;28;20476;-72
2021/12/27 09:23:30;;;;;;;12.70;8.57;;;;;;;-1.50;94.08;100495.88;5082919;28;20055;-71
2021/12/27 09:25:55;;;;;;;12.25;9.20;;;;;;;-1.25;93.88;100516.00;5086974;28;20039;-74
2021/12/27 09:28:21;;;;;;;17.42;12.15;;;;;;;-1.48;93.76;100494.25;5082802;28;20077;-79
2021/12/27 09:30:47;;;;;;;15.88;11.95;;;;;;;-1.15;94.08;100507.03;5085164;28;20838;-83
2021/12/27 09:33:12;;;;;;;15.15;10.82;;;;;;;-1.24;93.94;100498.84;5085246;28;20076;-81
2021/12/27 09:35:38;;;;;;;20.90;10.38;;;;;;;-1.39;93.71;100504.13;5081999;28;20048;-82
2021/12/27 09:38:35;;;;;;;12.57;9.57;;;;;;;-1.29;93.90;100508.91;5033468;28;20125;-85
2021/12/27 09:41:01;;;;;;;12.50;8.57;;;;;;;-1.58;93.76;100484.34;5016117;28;20048;-84
2021/12/27 09:43:27;;;;;;;11.68;9.10;;;;;;;-1.49;94.43;100474.50;5009797;28;20494;-86
2021/12/27 09:45:53;;;;;;;14.43;11.50;;;;;;;-1.05;94.28;100470.63;5008831;28;20049;-82
2021/12/27 09:48:35;;;;;;;14.27;10.05;;;;;;;-1.32;94.07;100473.63;5059490;27;21168;-77
2021/12/27 09:51:01;;;;;;;10.10;8.30;;;;;;;-1.36;93.94;100501.72;5079537;27;20043;-79
2021/12/27 09:53:27;;;;;;;9.27;7.57;;;;;;;-1.50;94.00;100488.16;5083138;28;20567;-73
2021/12/27 09:55:52;;;;;;;12.40;8.60;;;;;;;-1.16;93.81;100513.88;5086645;28;20071;-71
2021/12/27 09:58:20;;;;;;;13.30;10.45;;;;;;;-1.11;93.79;100512.38;5091357;28;20036;-72
2021/12/27 10:02:36;;;;;;;13.85;10.40;;;;;;;-1.10;93.59;100492.66;5057626;27;20611;-76
2021/12/27 10:05:02;;;;;;;16.20;8.82;;;;;;;-1.30;93.66;100505.47;5022781;28;20045;-80
2021/12/27 10:07:29;;;;;;;10.60;8.88;;;;;;;-0.96;93.69;100493.31;5032590;28;20037;-84
2021/12/27 10:12:36;;;;;;;11.10;8.18;;;;;;;-1.14;93.43;100481.34;5050657;28;21203;-82
2021/12/27 10:15:12;;;;;;;10.40;7.32;;;;;;;-1.24;93.33;100484.31;5037305;28;20045;-83
2021/12/27 10:17:39;;;;;;;11.85;10.05;;;;;;;-1.37;93.89;100482.81;5034136;28;20057;-83
2021/12/27 10:24:35;;;;;;;12.77;7.95;;;;;;;-1.49;94.10;100446.19;4972542;28;20623;-77
2021/12/27 10:27:02;;;;;;;11.38;7.38;;;;;;;-1.39;94.26;100453.53;4939753;28;20419;-80
2021/12/27 10:29:31;;;;;;;13.18;7.38;;;;;;;-1.42;94.46;100460.25;4933878;28;20154;-81
2021/12/27 10:32:10;;;;;;;8.82;7.25;;;;;;;-1.41;94.55;100470.59;4931371;28;20051;-83
2021/12/27 10:34:42;;;;;;;11.90;8.65;;;;;;;-1.50;94.92;100442.75;4920165;28;20159;-83
2021/12/27 10:37:23;;;;;;;13.05;9.75;;;;;;;-1.28;95.01;100460.09;4937851;28;20036;-81
2021/12/27 10:39:57;;;;;;;13.70;10.38;;;;;;;-1.21;94.85;100448.41;4937500;28;20051;-79
2021/12/27 10:42:46;;;;;;;13.10;9.80;;;;;;;-1.44;94.96;100437.00;5033508;28;20641;-79
2021/12/27 10:45:18;;;;;;;17.13;11.75;;;;;;;-1.34;95.00;100443.47;5004622;28;20042;-83
2021/12/27 10:47:52;;;;;;;13.25;10.25;;;;;;;-1.42;94.91;100445.69;4995521;28;20046;-79
2021/12/27 10:53:00;;;;;;;9.20;7.80;;;;;;;-0.96;94.61;100452.13;5121305;27;20614;-77
2021/12/27 10:55:34;;;;;;;10.48;8.00;;;;;;;-1.36;94.39;100443.41;5075347;28;20044;-83
2021/12/27 10:58:24;;;;;;;10.52;8.07;;;;;;;-1.39;94.42;100444.94;5093795;28;20031;-79
2021/12/27 11:00:57;;;;;;;11.30;8.85;;;;;;;-1.19;94.59;100453.63;5073655;28;20131;-80
2021/12/27 11:03:38;;;;;;;14.60;7.53;;;;;;;-1.36;94.44;100421.94;5079724;28;20052;-81
2021/12/27 11:06:10;;;;;;;9.45;7.72;;;;;;;-1.41;94.51;100395.97;5088313;28;20578;-77
2021/12/27 11:08:47;;;;;;;20.10;7.10;;;;;;;-0.95;94.47;100439.34;5093934;27;20040;-80
2021/12/27 11:11:14;;;;;;;11.40;8.95;;;;;;;-1.15;94.53;100424.63;5093506;28;20448;-80
2021/12/27 11:13:40;;;;;;;11.88;9.23;;;;;;;-1.11;94.17;100435.16;5093106;28;20051;-83
2021/12/27 11:16:06;;;;;;;9.30;7.47;;;;;;;-1.31;94.43;100412.75;5095803;27;20043;-79
2021/12/27 11:18:31;;;;;;;9.68;7.82;;;;;;;-1.18;94.08;100402.22;5097605;27;20048;-82
2021/12/27 11:22:39;;;;;;;8.82;6.82;;;;;;;-1.15;94.43;100407.53;5048976;28;20995;-82
2021/12/27 11:25:38;;;;;;;8.70;6.45;;;;;;;-1.24;94.35;100385.59;5049630;28;20037;-79
2021/12/27 11:28:27;;;;;;;7.63;5.55;;;;;;;-1.24;94.66;100401.03;5031149;28;20414;-81
2021/12/27 11:30:54;;;;;;;9.02;5.90;;;;;;;-1.22;94.82;100368.53;5028607;28;20049;-81
2021/12/27 11:33:21;;;;;;;9.60;6.43;;;;;;;-1.30;94.49;100381.94;5032574;28;20496;-81
2021/12/27 11:35:55;;;;;;;11.63;6.63;;;;;;;-0.98;93.95;100373.94;5033154;28;20049;-79
2021/12/27 11:38:31;;;;;;;8.82;6.45;;;;;;;-0.87;93.97;100383.91;5032385;28;20057;-78
2021/12/27 11:40:58;;;;;;;7.50;5.72;;;;;;;-1.10;93.88;100372.56;5031374;28;20064;-81
2021/12/27 11:43:23;;;;;;;7.68;5.15;;;;;;;-1.18;93.69;100399.63;5031637;28;20082;-80
2021/12/27 11:45:57;;;;;;;9.13;6.82;;;;;;;-1.11;93.97;100393.94;5034685;28;20547;-82
2021/12/27 11:48:23;;;;;;;;;;;;;;;-0.92;93.81;100400.84;5033252;28;20045;-75
2021/12/27 11:51:03;;;;;;;12.38;7.53;;;;;;;-1.15;93.78;100363.75;5035199;28;19921;-76
2021/12/27 11:53:32;;;;;;;8.80;6.15;;;;;;;-1.33;93.43;100386.94;5036019;28;20156;-72
2021/12/27 11:55:59;;;;;;;9.98;7.00;;;;;;;-1.10;93.59;100392.25;5032462;28;20119;-81
2021/12/27 11:58:35;;;;;;;15.82;8.48;;;;;;;-0.77;93.35;100392.03;5047319;28;20056;-82
2021/12/27 12:01:25;;;;;;;11.38;7.75;;;;;;;-1.13;93.34;100394.69;5032224;28;20037;-82
2021/12/27 12:03:55;;;;;;;7.97;6.30;;;;;;;-1.13;93.72;100411.03;5038085;28;20056;-82
2021/12/27 12:06:43;;;;;;;10.50;6.75;;;;;;;-1.22;93.84;100391.69;5031299;28;20230;-80
2021/12/27 12:09:11;;;;;;;9.05;7.25;;;;;;;-1.07;93.88;100395.88;5032140;28;20515;-82
2021/12/27 12:11:36;;;;;;;9.93;7.05;;;;;;;-1.02;93.75;100393.50;5030043;28;20053;-82
2021/12/27 12:14:41;;;;;;;10.02;7.45;;;;;;;-1.02;93.70;100393.50;5032798;28;20485;-81
2021/12/27 12:18:42;;;;;;;9.90;8.63;;;;;;;-1.01;93.65;100392.69;5000307;27;20624;-81
2021/12/27 12:21:32;;;;;;;21.17;9.13;;;;;;;-1.09;93.51;100394.03;4998016;28;20050;-73
2021/12/27 12:24:01;;;;;;;11.18;8.15;;;;;;;-1.17;93.59;100393.69;4997721;28;20066;-72
2021/12/27 12:26:28;;;;;;;12.32;9.43;;;;;;;-0.80;93.65;100417.66;5000651;28;20042;-77
2021/12/27 12:29:01;;;;;;;12.95;8.77;;;;;;;-1.03;93.59;100393.44;5005446;28;20056;-82
2021/12/27 12:31:29;;;;;;;13.23;10.68;;;;;;;-0.87;93.67;100413.91;5002950;28;20041;-85
2021/12/27 12:34:10;;;;;;;7.03;5.97;;;;;;;-1.12;93.61;100402.50;5007502;28;20038;-83